EUS85SM ENBR-EKVG
Flight info
| Callsign | EUS85SM |
|---|---|
| Flight time | 1h 5m |
| Altitude | 38000 |
| Route | REKLI DCT VALDI/M077F380 DCT ROBUR |
| Aircraft | A320/M-SDE3FGHIRWY/LB1 |
Departure
| Time | 2026-05-08 21:52 |
|---|---|
| Airport | Bergen Airport, Flesland (ENBR) |
Arrival
| Time | 2026-05-08 22:57 |
|---|---|
| Airport | Vágar Airport (EKVG) |
| Time | Latitude | Longitude | Altitude | Speed | Heading |
|---|---|---|---|---|---|
| 2026-05-08 21:12 | 60.28406 | 5.22665 | 162 ft | 0 kts | 96° |
| 2026-05-08 21:43 | 60.28407 | 5.22663 | 162 ft | 2 kts | 96° |
| 2026-05-08 21:43 | 60.28406 | 5.22614 | 162 ft | 4 kts | 70° |
| 2026-05-08 21:43 | 60.28394 | 5.22578 | 161 ft | 4 kts | 7° |
| 2026-05-08 21:43 | 60.28386 | 5.22577 | 161 ft | 0 kts | 351° |
| 2026-05-08 21:46 | 60.28391 | 5.22576 | 161 ft | 2 kts | 351° |
| 2026-05-08 21:46 | 60.28412 | 5.22569 | 162 ft | 4 kts | 351° |
| 2026-05-08 21:47 | 60.28454 | 5.22555 | 163 ft | 9 kts | 351° |
| 2026-05-08 21:47 | 60.28529 | 5.22530 | 166 ft | 16 kts | 350° |
| 2026-05-08 21:47 | 60.28633 | 5.22494 | 170 ft | 14 kts | 351° |
| 2026-05-08 21:47 | 60.28696 | 5.22373 | 169 ft | 15 kts | 308° |
| 2026-05-08 21:48 | 60.28804 | 5.22318 | 170 ft | 23 kts | 351° |
| 2026-05-08 21:48 | 60.29003 | 5.22249 | 173 ft | 30 kts | 352° |
| 2026-05-08 21:48 | 60.29204 | 5.22184 | 169 ft | 30 kts | 349° |
| 2026-05-08 21:48 | 60.29411 | 5.22113 | 160 ft | 29 kts | 350° |
| 2026-05-08 21:49 | 60.29597 | 5.22051 | 153 ft | 23 kts | 352° |
| 2026-05-08 21:49 | 60.29758 | 5.21994 | 149 ft | 24 kts | 350° |
| 2026-05-08 21:49 | 60.29949 | 5.21932 | 156 ft | 28 kts | 351° |
| 2026-05-08 21:49 | 60.30139 | 5.21867 | 164 ft | 27 kts | 351° |
| 2026-05-08 21:50 | 60.30300 | 5.21815 | 171 ft | 19 kts | 350° |
| 2026-05-08 21:50 | 60.30414 | 5.21773 | 176 ft | 14 kts | 342° |
| 2026-05-08 21:50 | 60.30429 | 5.21575 | 175 ft | 17 kts | 250° |
| 2026-05-08 21:50 | 60.30353 | 5.21475 | 172 ft | 12 kts | 172° |
| 2026-05-08 21:51 | 60.30242 | 5.21514 | 168 ft | 30 kts | 171° |
| 2026-05-08 21:51 | 60.29772 | 5.21672 | 147 ft | 103 kts | 170° |
| 2026-05-08 21:51 | 60.28879 | 5.21975 | 198 ft | 153 kts | 169° |
| 2026-05-08 21:51 | 60.27788 | 5.22323 | 690 ft | 163 kts | 169° |
| 2026-05-08 21:52 | 60.26633 | 5.22695 | 1390 ft | 173 kts | 172° |
| 2026-05-08 21:52 | 60.25418 | 5.23077 | 2110 ft | 181 kts | 172° |
| 2026-05-08 21:52 | 60.24119 | 5.23544 | 2643 ft | 201 kts | 172° |
| 2026-05-08 21:52 | 60.22677 | 5.24079 | 3242 ft | 220 kts | 172° |
| 2026-05-08 21:53 | 60.21125 | 5.24646 | 4035 ft | 231 kts | 173° |
| 2026-05-08 21:53 | 60.19521 | 5.25175 | 5001 ft | 236 kts | 173° |
| 2026-05-08 21:53 | 60.17881 | 5.25700 | 5747 ft | 242 kts | 173° |
| 2026-05-08 21:53 | 60.16211 | 5.26232 | 6546 ft | 244 kts | 173° |
| 2026-05-08 21:54 | 60.14527 | 5.26774 | 7468 ft | 247 kts | 173° |
| 2026-05-08 21:54 | 60.12808 | 5.27204 | 8336 ft | 251 kts | 183° |
| 2026-05-08 21:54 | 60.11109 | 5.26466 | 9196 ft | 253 kts | 206° |
| 2026-05-08 21:54 | 60.09692 | 5.24377 | 10084 ft | 257 kts | 228° |
| 2026-05-08 21:55 | 60.08812 | 5.21226 | 10898 ft | 266 kts | 251° |
| 2026-05-08 21:55 | 60.08504 | 5.17534 | 11728 ft | 273 kts | 264° |
| 2026-05-08 21:55 | 60.08819 | 5.13714 | 12530 ft | 287 kts | 287° |
| 2026-05-08 21:56 | 60.11985 | 5.08144 | 13397 ft | 345 kts | 338° |
| 2026-05-08 21:56 | 60.14341 | 5.06797 | 13978 ft | 357 kts | 342° |
| 2026-05-08 21:56 | 60.16784 | 5.05699 | 14634 ft | 363 kts | 344° |
| 2026-05-08 21:56 | 60.19275 | 5.04687 | 15310 ft | 367 kts | 345° |
| 2026-05-08 21:57 | 60.21713 | 5.03229 | 15978 ft | 365 kts | 329° |
| 2026-05-08 21:57 | 60.23785 | 5.00417 | 16633 ft | 358 kts | 310° |
| 2026-05-08 21:57 | 60.25281 | 4.96503 | 17305 ft | 350 kts | 292° |
| 2026-05-08 21:57 | 60.26234 | 4.92030 | 17998 ft | 349 kts | 286° |
| 2026-05-08 21:58 | 60.27141 | 4.87477 | 18667 ft | 352 kts | 286° |
| 2026-05-08 21:58 | 60.28054 | 4.82887 | 19263 ft | 354 kts | 286° |
| 2026-05-08 21:58 | 60.28973 | 4.78264 | 19851 ft | 357 kts | 286° |
| 2026-05-08 21:58 | 60.29902 | 4.73593 | 20437 ft | 360 kts | 286° |
| 2026-05-08 21:59 | 60.30835 | 4.68889 | 21069 ft | 363 kts | 285° |
| 2026-05-08 21:59 | 60.31774 | 4.64143 | 21685 ft | 365 kts | 285° |
| 2026-05-08 21:59 | 60.32702 | 4.59433 | 22274 ft | 367 kts | 285° |
| 2026-05-08 21:59 | 60.33648 | 4.54625 | 22856 ft | 371 kts | 285° |
| 2026-05-08 22:00 | 60.34605 | 4.49766 | 23428 ft | 374 kts | 285° |
| 2026-05-08 22:00 | 60.35566 | 4.44870 | 23960 ft | 377 kts | 285° |
| 2026-05-08 22:00 | 60.36533 | 4.39930 | 24431 ft | 379 kts | 285° |
| 2026-05-08 22:00 | 60.37502 | 4.34971 | 24930 ft | 380 kts | 285° |
| 2026-05-08 22:01 | 60.38473 | 4.29989 | 25411 ft | 381 kts | 285° |
| 2026-05-08 22:01 | 60.39444 | 4.24992 | 25919 ft | 383 kts | 284° |
| 2026-05-08 22:01 | 60.40416 | 4.19976 | 26382 ft | 384 kts | 284° |
| 2026-05-08 22:01 | 60.41392 | 4.14940 | 26842 ft | 385 kts | 284° |
| 2026-05-08 22:02 | 60.42367 | 4.09884 | 27290 ft | 386 kts | 284° |
| 2026-05-08 22:02 | 60.43343 | 4.04810 | 27735 ft | 387 kts | 284° |
| 2026-05-08 22:02 | 60.44319 | 3.99719 | 28247 ft | 387 kts | 283° |
| 2026-05-08 22:02 | 60.45292 | 3.94628 | 28724 ft | 387 kts | 283° |
| 2026-05-08 22:03 | 60.46271 | 3.89538 | 29164 ft | 389 kts | 284° |
| 2026-05-08 22:03 | 60.47307 | 3.84458 | 29568 ft | 391 kts | 285° |
| 2026-05-08 22:03 | 60.48386 | 3.79378 | 29968 ft | 393 kts | 285° |
| 2026-05-08 22:03 | 60.49487 | 3.74296 | 30296 ft | 394 kts | 285° |
| 2026-05-08 22:04 | 60.50591 | 3.69187 | 30600 ft | 396 kts | 285° |
| 2026-05-08 22:04 | 60.51687 | 3.64044 | 30872 ft | 398 kts | 285° |
| 2026-05-08 22:04 | 60.52778 | 3.58871 | 31135 ft | 400 kts | 285° |
| 2026-05-08 22:04 | 60.53867 | 3.53662 | 31391 ft | 402 kts | 285° |
| 2026-05-08 22:05 | 60.54957 | 3.48416 | 31633 ft | 404 kts | 285° |
| 2026-05-08 22:05 | 60.56047 | 3.43150 | 31953 ft | 404 kts | 285° |
| 2026-05-08 22:05 | 60.57134 | 3.37884 | 32339 ft | 404 kts | 285° |
| 2026-05-08 22:05 | 60.58221 | 3.32622 | 32640 ft | 405 kts | 285° |
| 2026-05-08 22:06 | 60.59312 | 3.27334 | 32936 ft | 406 kts | 285° |
| 2026-05-08 22:06 | 60.60402 | 3.22035 | 33253 ft | 406 kts | 285° |
| 2026-05-08 22:06 | 60.61492 | 3.16733 | 33571 ft | 407 kts | 286° |
| 2026-05-08 22:06 | 60.62582 | 3.11410 | 33880 ft | 407 kts | 286° |
| 2026-05-08 22:07 | 60.63669 | 3.06079 | 34168 ft | 408 kts | 286° |
| 2026-05-08 22:07 | 60.64757 | 3.00739 | 34423 ft | 409 kts | 286° |
| 2026-05-08 22:07 | 60.65845 | 2.95384 | 34657 ft | 410 kts | 286° |
| 2026-05-08 22:07 | 60.66931 | 2.90004 | 34890 ft | 410 kts | 286° |
| 2026-05-08 22:08 | 60.68015 | 2.84609 | 35115 ft | 411 kts | 286° |
| 2026-05-08 22:08 | 60.69099 | 2.79205 | 35332 ft | 412 kts | 286° |
| 2026-05-08 22:08 | 60.70185 | 2.73787 | 35546 ft | 413 kts | 287° |
| 2026-05-08 22:08 | 60.71276 | 2.68345 | 35754 ft | 415 kts | 287° |
| 2026-05-08 22:09 | 60.72369 | 2.62875 | 35914 ft | 417 kts | 287° |
| 2026-05-08 22:09 | 60.73466 | 2.57371 | 36085 ft | 420 kts | 287° |
| 2026-05-08 22:09 | 60.74570 | 2.51829 | 36219 ft | 422 kts | 287° |
| 2026-05-08 22:09 | 60.75678 | 2.46266 | 36417 ft | 423 kts | 287° |
| 2026-05-08 22:10 | 60.76788 | 2.40680 | 36600 ft | 424 kts | 287° |
| 2026-05-08 22:10 | 60.77894 | 2.35086 | 36794 ft | 424 kts | 287° |
| 2026-05-08 22:10 | 60.78994 | 2.29481 | 36980 ft | 425 kts | 287° |
| 2026-05-08 22:10 | 60.80077 | 2.23928 | 37165 ft | 426 kts | 287° |
| 2026-05-08 22:11 | 60.81186 | 2.18221 | 37357 ft | 426 kts | 287° |
| 2026-05-08 22:11 | 60.82269 | 2.12642 | 37537 ft | 427 kts | 287° |
| 2026-05-08 22:11 | 60.83367 | 2.06987 | 37710 ft | 428 kts | 287° |
| 2026-05-08 22:11 | 60.84468 | 2.01319 | 37906 ft | 428 kts | 287° |
| 2026-05-08 22:12 | 60.85581 | 1.95560 | 38063 ft | 429 kts | 287° |
| 2026-05-08 22:12 | 60.87751 | 1.84274 | 38084 ft | 428 kts | 287° |
| 2026-05-08 22:13 | 60.89919 | 1.72922 | 38087 ft | 428 kts | 287° |
| 2026-05-08 22:13 | 60.92092 | 1.61548 | 38078 ft | 428 kts | 287° |
| 2026-05-08 22:14 | 60.94243 | 1.50144 | 38079 ft | 428 kts | 287° |
| 2026-05-08 22:14 | 60.96383 | 1.38719 | 38082 ft | 428 kts | 287° |
| 2026-05-08 22:15 | 60.98523 | 1.27277 | 38084 ft | 429 kts | 287° |
| 2026-05-08 22:15 | 61.00655 | 1.15808 | 38077 ft | 429 kts | 287° |
| 2026-05-08 22:16 | 61.02775 | 1.04317 | 38065 ft | 429 kts | 287° |
| 2026-05-08 22:16 | 61.04886 | 0.92803 | 38086 ft | 429 kts | 287° |
| 2026-05-08 22:17 | 61.06984 | 0.81263 | 38069 ft | 429 kts | 287° |
| 2026-05-08 22:17 | 61.09079 | 0.69703 | 38060 ft | 430 kts | 286° |
| 2026-05-08 22:18 | 61.11162 | 0.58121 | 38059 ft | 430 kts | 287° |
| 2026-05-08 22:18 | 61.13239 | 0.46508 | 38043 ft | 430 kts | 287° |
| 2026-05-08 22:19 | 61.15319 | 0.34894 | 38049 ft | 430 kts | 287° |
| 2026-05-08 22:19 | 61.17382 | 0.23272 | 38048 ft | 430 kts | 286° |
| 2026-05-08 22:20 | 61.19424 | 0.11620 | 38046 ft | 430 kts | 286° |
| 2026-05-08 22:20 | 61.21425 | -0.00062 | 38050 ft | 429 kts | 284° |
| 2026-05-08 22:21 | 61.23117 | -0.11920 | 38032 ft | 428 kts | 281° |
| 2026-05-08 22:21 | 61.24570 | -0.23883 | 38035 ft | 427 kts | 280° |
| 2026-05-08 22:22 | 61.26012 | -0.35836 | 38031 ft | 426 kts | 281° |
| 2026-05-08 22:22 | 61.27496 | -0.47770 | 38025 ft | 427 kts | 281° |
| 2026-05-08 22:23 | 61.28994 | -0.59705 | 38016 ft | 426 kts | 281° |
| 2026-05-08 22:23 | 61.30475 | -0.71680 | 37998 ft | 434 kts | 280° |
| 2026-05-08 22:24 | 61.31971 | -0.83943 | 37997 ft | 440 kts | 281° |
| 2026-05-08 22:24 | 61.33478 | -0.96356 | 37991 ft | 445 kts | 281° |
| 2026-05-08 22:25 | 61.34984 | -1.08920 | 37977 ft | 449 kts | 281° |
| 2026-05-08 22:25 | 61.36498 | -1.21562 | 37973 ft | 451 kts | 281° |
| 2026-05-08 22:26 | 61.38011 | -1.34274 | 37971 ft | 452 kts | 281° |
| 2026-05-08 22:26 | 61.39505 | -1.47052 | 37964 ft | 454 kts | 280° |
| 2026-05-08 22:27 | 61.40982 | -1.59867 | 37967 ft | 454 kts | 280° |
| 2026-05-08 22:27 | 61.42458 | -1.72687 | 37952 ft | 454 kts | 280° |
| 2026-05-08 22:28 | 61.43928 | -1.85543 | 37945 ft | 455 kts | 280° |
| 2026-05-08 22:28 | 61.45383 | -1.98421 | 37928 ft | 455 kts | 280° |
| 2026-05-08 22:29 | 61.46824 | -2.11301 | 37952 ft | 455 kts | 280° |
| 2026-05-08 22:29 | 61.48251 | -2.24203 | 37931 ft | 456 kts | 280° |
| 2026-05-08 22:30 | 61.49668 | -2.37137 | 37932 ft | 456 kts | 280° |
| 2026-05-08 22:30 | 61.51083 | -2.50082 | 37931 ft | 456 kts | 280° |
| 2026-05-08 22:31 | 61.52256 | -2.60930 | 37930 ft | 456 kts | 280° |
| 2026-05-08 22:31 | 61.53636 | -2.73904 | 37928 ft | 456 kts | 280° |
| 2026-05-08 22:32 | 61.54999 | -2.86796 | 37932 ft | 456 kts | 280° |
| 2026-05-08 22:32 | 61.56365 | -2.99776 | 37923 ft | 456 kts | 280° |
| 2026-05-08 22:33 | 61.57713 | -3.12788 | 37921 ft | 456 kts | 279° |
| 2026-05-08 22:33 | 61.59052 | -3.25816 | 37925 ft | 456 kts | 279° |
| 2026-05-08 22:34 | 61.60379 | -3.38836 | 37924 ft | 456 kts | 279° |
| 2026-05-08 22:34 | 61.61690 | -3.51893 | 37920 ft | 457 kts | 279° |
| 2026-05-08 22:34 | 61.62337 | -3.58421 | 37785 ft | 456 kts | 279° |
| 2026-05-08 22:35 | 61.62985 | -3.64937 | 37021 ft | 454 kts | 279° |
| 2026-05-08 22:35 | 61.63626 | -3.71430 | 36093 ft | 453 kts | 279° |
| 2026-05-08 22:35 | 61.64266 | -3.77932 | 35090 ft | 455 kts | 279° |
| 2026-05-08 22:35 | 61.64904 | -3.84436 | 34355 ft | 454 kts | 279° |
| 2026-05-08 22:36 | 61.65541 | -3.90971 | 33655 ft | 456 kts | 279° |
| 2026-05-08 22:36 | 61.66172 | -3.97477 | 32889 ft | 453 kts | 279° |
| 2026-05-08 22:36 | 61.66798 | -4.03961 | 32583 ft | 450 kts | 278° |
| 2026-05-08 22:36 | 61.67414 | -4.10354 | 32170 ft | 441 kts | 278° |
| 2026-05-08 22:37 | 61.68013 | -4.16643 | 31524 ft | 435 kts | 278° |
| 2026-05-08 22:37 | 61.68598 | -4.22845 | 30886 ft | 429 kts | 278° |
| 2026-05-08 22:37 | 61.69173 | -4.28974 | 30283 ft | 424 kts | 279° |
| 2026-05-08 22:37 | 61.69745 | -4.35094 | 29589 ft | 428 kts | 278° |
| 2026-05-08 22:38 | 61.70316 | -4.41274 | 28778 ft | 431 kts | 278° |
| 2026-05-08 22:38 | 61.70886 | -4.47459 | 28002 ft | 428 kts | 278° |
| 2026-05-08 22:38 | 61.71458 | -4.53625 | 27225 ft | 430 kts | 278° |
| 2026-05-08 22:38 | 61.72031 | -4.59825 | 26485 ft | 431 kts | 278° |
| 2026-05-08 22:39 | 61.72600 | -4.66043 | 25759 ft | 434 kts | 278° |
| 2026-05-08 22:39 | 61.73171 | -4.72309 | 25050 ft | 435 kts | 278° |
| 2026-05-08 22:39 | 61.73735 | -4.78559 | 24356 ft | 433 kts | 278° |
| 2026-05-08 22:39 | 61.74292 | -4.84798 | 23694 ft | 433 kts | 277° |
| 2026-05-08 22:40 | 61.74848 | -4.91030 | 22914 ft | 431 kts | 277° |
| 2026-05-08 22:40 | 61.75402 | -4.97278 | 22118 ft | 435 kts | 277° |
| 2026-05-08 22:40 | 61.75952 | -5.03511 | 21345 ft | 430 kts | 278° |
| 2026-05-08 22:40 | 61.76497 | -5.09717 | 20531 ft | 429 kts | 279° |
| 2026-05-08 22:41 | 61.77032 | -5.15845 | 20011 ft | 416 kts | 278° |
| 2026-05-08 22:41 | 61.77530 | -5.21659 | 19837 ft | 404 kts | 278° |
| 2026-05-08 22:41 | 61.78032 | -5.27435 | 19151 ft | 395 kts | 278° |
| 2026-05-08 22:41 | 61.78527 | -5.33146 | 18499 ft | 397 kts | 279° |
| 2026-05-08 22:42 | 61.79020 | -5.38864 | 17620 ft | 393 kts | 279° |
| 2026-05-08 22:42 | 61.79502 | -5.44521 | 16747 ft | 390 kts | 279° |
| 2026-05-08 22:42 | 61.79975 | -5.50135 | 15892 ft | 386 kts | 279° |
| 2026-05-08 22:42 | 61.80444 | -5.55719 | 15065 ft | 384 kts | 279° |
| 2026-05-08 22:43 | 61.80912 | -5.61267 | 14266 ft | 384 kts | 279° |
| 2026-05-08 22:43 | 61.81378 | -5.66799 | 13512 ft | 379 kts | 279° |
| 2026-05-08 22:43 | 61.81831 | -5.72227 | 13461 ft | 373 kts | 279° |
| 2026-05-08 22:43 | 61.82281 | -5.77653 | 13436 ft | 378 kts | 280° |
| 2026-05-08 22:44 | 61.82733 | -5.83127 | 13167 ft | 376 kts | 280° |
| 2026-05-08 22:44 | 61.83178 | -5.88585 | 12888 ft | 377 kts | 280° |
| 2026-05-08 22:44 | 61.83623 | -5.94058 | 12615 ft | 376 kts | 280° |
| 2026-05-08 22:44 | 61.84062 | -5.99494 | 12294 ft | 372 kts | 280° |
| 2026-05-08 22:45 | 61.84493 | -6.04872 | 11862 ft | 371 kts | 280° |
| 2026-05-08 22:45 | 61.84920 | -6.10210 | 11364 ft | 366 kts | 281° |
| 2026-05-08 22:45 | 61.85342 | -6.15494 | 10869 ft | 361 kts | 281° |
| 2026-05-08 22:45 | 61.85760 | -6.20731 | 10392 ft | 361 kts | 281° |
| 2026-05-08 22:46 | 61.86172 | -6.25957 | 9912 ft | 357 kts | 281° |
| 2026-05-08 22:46 | 61.86576 | -6.31144 | 9402 ft | 356 kts | 281° |
| 2026-05-08 22:46 | 61.86970 | -6.36237 | 8880 ft | 337 kts | 281° |
| 2026-05-08 22:46 | 61.87328 | -6.40907 | 8401 ft | 306 kts | 282° |
| 2026-05-08 22:47 | 61.87645 | -6.45106 | 8285 ft | 270 kts | 282° |
| 2026-05-08 22:47 | 61.87922 | -6.48807 | 8282 ft | 244 kts | 283° |
| 2026-05-08 22:47 | 61.88192 | -6.52336 | 8284 ft | 240 kts | 283° |
| 2026-05-08 22:47 | 61.88460 | -6.55780 | 8283 ft | 235 kts | 284° |
| 2026-05-08 22:48 | 61.88752 | -6.59207 | 7968 ft | 236 kts | 286° |
| 2026-05-08 22:48 | 61.89129 | -6.62583 | 7513 ft | 235 kts | 288° |
| 2026-05-08 22:48 | 61.89535 | -6.65923 | 7075 ft | 233 kts | 288° |
| 2026-05-08 22:48 | 61.89944 | -6.69246 | 6640 ft | 233 kts | 288° |
| 2026-05-08 22:49 | 61.90350 | -6.72559 | 6210 ft | 232 kts | 288° |
| 2026-05-08 22:49 | 61.91138 | -6.79141 | 5287 ft | 229 kts | 287° |
| 2026-05-08 22:49 | 61.91522 | -6.82399 | 4945 ft | 224 kts | 287° |
| 2026-05-08 22:50 | 61.91892 | -6.85576 | 4682 ft | 218 kts | 287° |
| 2026-05-08 22:50 | 61.92243 | -6.88617 | 4573 ft | 204 kts | 288° |
| 2026-05-08 22:50 | 61.92566 | -6.91433 | 4578 ft | 194 kts | 288° |
| 2026-05-08 22:50 | 61.92892 | -6.94242 | 4580 ft | 197 kts | 288° |
| 2026-05-08 22:51 | 61.93223 | -6.97090 | 4504 ft | 199 kts | 288° |
| 2026-05-08 22:51 | 61.93547 | -6.99927 | 4408 ft | 193 kts | 288° |
| 2026-05-08 22:51 | 61.93853 | -7.02639 | 4322 ft | 187 kts | 288° |
| 2026-05-08 22:51 | 61.94150 | -7.05262 | 4228 ft | 176 kts | 288° |
| 2026-05-08 22:52 | 61.94427 | -7.07703 | 4164 ft | 164 kts | 289° |
| 2026-05-08 22:52 | 61.94689 | -7.09987 | 4089 ft | 154 kts | 289° |
| 2026-05-08 22:52 | 61.94935 | -7.12124 | 4016 ft | 143 kts | 290° |
| 2026-05-08 22:52 | 61.95157 | -7.14078 | 4017 ft | 128 kts | 290° |
| 2026-05-08 22:53 | 61.95330 | -7.15915 | 3910 ft | 129 kts | 285° |
| 2026-05-08 22:53 | 61.95467 | -7.17902 | 3424 ft | 140 kts | 287° |
| 2026-05-08 22:53 | 61.95691 | -7.19894 | 3127 ft | 134 kts | 294° |
| 2026-05-08 22:53 | 61.96048 | -7.21638 | 2919 ft | 125 kts | 302° |
| 2026-05-08 22:54 | 61.96580 | -7.23096 | 2660 ft | 124 kts | 317° |
| 2026-05-08 22:54 | 61.97256 | -7.24200 | 2487 ft | 122 kts | 322° |
| 2026-05-08 22:54 | 61.98042 | -7.24871 | 2347 ft | 125 kts | 341° |
| 2026-05-08 22:54 | 61.98933 | -7.24854 | 2244 ft | 135 kts | 356° |
| 2026-05-08 22:55 | 61.99858 | -7.24462 | 1988 ft | 138 kts | 2° |
| 2026-05-08 22:55 | 62.00791 | -7.23832 | 1701 ft | 139 kts | 7° |
| 2026-05-08 22:55 | 62.01692 | -7.23067 | 1618 ft | 141 kts | 11° |
| 2026-05-08 22:55 | 62.02538 | -7.22002 | 1373 ft | 139 kts | 14° |
| 2026-05-08 22:56 | 62.03390 | -7.21502 | 1669 ft | 119 kts | 343° |
| 2026-05-08 22:56 | 62.04123 | -7.22102 | 1908 ft | 112 kts | 322° |
| 2026-05-08 22:56 | 62.04735 | -7.23096 | 1628 ft | 109 kts | 320° |
| 2026-05-08 22:56 | 62.05316 | -7.24209 | 1034 ft | 116 kts | 313° |
| 2026-05-08 22:57 | 62.05819 | -7.25651 | 367 ft | 125 kts | 301° |
| 2026-05-08 22:57 | 62.06199 | -7.27082 | 278 ft | 93 kts | 298° |
| 2026-05-08 22:57 | 62.06408 | -7.27916 | 295 ft | 42 kts | 298° |
| 2026-05-08 22:57 | 62.06507 | -7.28139 | 287 ft | 16 kts | 15° |
| 2026-05-08 22:58 | 62.06577 | -7.28094 | 289 ft | 8 kts | 8° |
| 2026-05-08 22:58 | 62.06637 | -7.28093 | 289 ft | 9 kts | 351° |
| 2026-05-08 22:58 | 62.06678 | -7.28122 | 293 ft | 5 kts | 332° |
| 2026-05-08 22:58 | 62.06695 | -7.28148 | 292 ft | 2 kts | 318° |
| 2026-05-08 22:59 | 62.06713 | -7.28201 | 294 ft | 5 kts | 305° |
| 2026-05-08 22:59 | 62.06743 | -7.28240 | 290 ft | 5 kts | 348° |
| 2026-05-08 22:59 | 62.06754 | -7.28210 | 292 ft | 2 kts | 66° |
| 2026-05-08 22:59 | 62.06754 | -7.28206 | 292 ft | 0 kts | 67° |